createdAt,value
2023-01-18T00:00:13.601Z,6.60
2023-01-18T00:02:41.190Z,6.77
2023-01-18T00:05:09.073Z,6.20
2023-01-18T00:07:36.549Z,5.67
2023-01-18T00:10:04.015Z,5.87
2023-01-18T00:12:31.485Z,6.37
2023-01-18T00:14:58.909Z,6.67
2023-01-18T00:17:26.313Z,6.73
2023-01-18T00:19:54.024Z,7.33
2023-01-18T00:22:21.481Z,6.00
2023-01-18T00:24:48.914Z,7.33
2023-01-18T00:27:16.272Z,6.17
2023-01-18T00:29:43.673Z,5.67
2023-01-18T00:32:11.291Z,6.20
2023-01-18T00:34:38.804Z,6.13
2023-01-18T00:37:05.991Z,5.57
2023-01-18T00:39:33.371Z,6.43
2023-01-18T00:42:19.346Z,5.83
2023-01-18T00:44:46.709Z,5.50
2023-01-18T00:47:14.154Z,6.70
2023-01-18T00:49:41.493Z,5.80
2023-01-18T00:52:09.015Z,5.80
2023-01-18T00:54:36.385Z,5.60
2023-01-18T00:57:03.998Z,5.90
2023-01-18T00:59:31.548Z,5.93
2023-01-18T01:01:58.975Z,5.93
2023-01-18T01:04:45.210Z,6.13
2023-01-18T01:07:12.870Z,5.63
2023-01-18T01:09:40.450Z,6.70
2023-01-18T01:12:26.383Z,5.73
2023-01-18T01:15:12.418Z,5.90
2023-01-18T01:17:58.726Z,5.40
2023-01-18T01:20:45.559Z,6.30
2023-01-18T01:23:34.515Z,5.70
2023-01-18T01:26:08.045Z,6.03
2023-01-18T01:28:36.411Z,6.63
2023-01-18T01:31:04.993Z,6.20
2023-01-18T01:33:33.179Z,5.13
2023-01-18T01:36:04.002Z,5.63
2023-01-18T01:38:31.467Z,5.37
2023-01-18T01:40:58.927Z,6.00
2023-01-18T01:43:38.454Z,5.20
2023-01-18T01:46:13.093Z,5.60
2023-01-18T01:48:40.465Z,4.97
2023-01-18T01:51:07.866Z,5.10
2023-01-18T01:53:35.257Z,5.83
2023-01-18T01:56:04.801Z,6.30
2023-01-18T01:58:32.906Z,5.60
2023-01-18T02:01:00.505Z,6.33
2023-01-18T02:03:27.984Z,5.73
2023-01-18T02:06:02.824Z,6.00
2023-01-18T02:08:30.272Z,6.63
2023-01-18T02:10:57.717Z,5.83
2023-01-18T02:13:25.869Z,6.37
2023-01-18T02:16:11.874Z,6.17
2023-01-18T02:18:46.666Z,7.40
2023-01-18T02:21:16.548Z,6.20
2023-01-18T02:23:43.909Z,6.67
2023-01-18T02:26:30.119Z,6.20
2023-01-18T02:29:17.779Z,6.17
2023-01-18T02:32:05.303Z,7.30
2023-01-18T02:34:50.048Z,6.87
2023-01-18T02:37:23.624Z,5.60
2023-01-18T02:40:09.929Z,5.63
2023-01-18T02:42:57.246Z,6.00
2023-01-18T02:45:54.581Z,6.13
2023-01-18T02:48:23.147Z,6.50
2023-01-18T02:50:50.680Z,6.43
2023-01-18T02:53:17.979Z,5.70
2023-01-18T02:55:52.617Z,6.17
2023-01-18T02:58:26.477Z,5.57
2023-01-18T03:00:57.122Z,5.77
2023-01-18T03:03:25.782Z,5.80
2023-01-18T03:05:54.759Z,6.40
2023-01-18T03:08:32.234Z,5.60
2023-01-18T03:11:08.474Z,6.40
2023-01-18T03:13:41.194Z,5.40
2023-01-18T03:16:15.368Z,5.63
2023-01-18T03:19:00.371Z,5.40
2023-01-18T03:21:48.081Z,5.67
2023-01-18T03:24:16.262Z,5.43
2023-01-18T03:26:47.089Z,5.43
2023-01-18T03:29:34.760Z,5.73
2023-01-18T03:32:23.356Z,5.83
2023-01-18T03:34:59.540Z,5.80
2023-01-18T03:37:37.712Z,5.83
2023-01-18T03:40:10.445Z,5.90
2023-01-18T03:42:40.547Z,6.23
2023-01-18T03:45:11.185Z,5.73
2023-01-18T03:47:38.629Z,5.67
2023-01-18T03:50:06.041Z,5.70
2023-01-18T03:52:42.887Z,5.90
2023-01-18T03:55:22.589Z,5.40
2023-01-18T03:58:01.681Z,5.93
2023-01-18T04:00:31.299Z,6.80
2023-01-18T04:02:59.256Z,5.80
2023-01-18T04:05:26.649Z,5.47
2023-01-18T04:07:53.784Z,5.97
2023-01-18T04:10:21.043Z,5.30
2023-01-18T04:12:48.213Z,5.70
2023-01-18T04:15:15.440Z,4.80
2023-01-18T04:17:42.559Z,5.47
2023-01-18T04:20:10.106Z,5.00
2023-01-18T04:22:37.224Z,5.57
2023-01-18T04:25:04.374Z,5.70
2023-01-18T04:27:31.528Z,5.00
2023-01-18T04:29:58.824Z,5.17
2023-01-18T04:32:25.959Z,4.93
2023-01-18T04:34:53.436Z,5.00
2023-01-18T04:37:20.577Z,4.93
2023-01-18T04:39:47.738Z,4.80
2023-01-18T04:42:14.955Z,5.00
2023-01-18T04:44:42.070Z,5.20
2023-01-18T04:47:09.192Z,5.33
2023-01-18T04:49:36.273Z,4.30
2023-01-18T04:52:03.378Z,5.40
2023-01-18T04:54:30.621Z,4.57
2023-01-18T04:56:57.737Z,5.77
2023-01-18T04:59:24.935Z,4.30
2023-01-18T05:01:52.132Z,5.23
2023-01-18T05:04:19.259Z,4.87
2023-01-18T05:06:48.837Z,4.33
2023-01-18T05:09:16.117Z,4.63
2023-01-18T05:11:43.524Z,4.23
2023-01-18T05:14:10.648Z,4.50
2023-01-18T05:16:37.829Z,4.67
2023-01-18T05:19:04.971Z,4.10
2023-01-18T05:21:32.091Z,4.33
2023-01-18T05:23:59.500Z,4.50
2023-01-18T05:26:26.620Z,4.40
2023-01-18T05:28:57.083Z,4.10
2023-01-18T05:31:24.238Z,4.03
2023-01-18T05:33:51.369Z,4.00
2023-01-18T05:36:18.528Z,4.03
2023-01-18T05:38:46.756Z,4.20
2023-01-18T05:41:13.867Z,4.97
2023-01-18T05:43:41.114Z,4.73
2023-01-18T05:46:08.359Z,4.20
2023-01-18T05:48:35.553Z,4.27
2023-01-18T05:51:07.647Z,4.53
2023-01-18T05:53:34.789Z,4.40
2023-01-18T05:56:03.261Z,3.80
2023-01-18T05:58:30.359Z,3.77
2023-01-18T06:00:58.483Z,4.40
2023-01-18T06:03:25.917Z,3.70
2023-01-18T06:05:53.481Z,3.70
2023-01-18T06:08:21.087Z,3.70
2023-01-18T06:10:58.350Z,3.70
2023-01-18T06:13:29.342Z,3.20
2023-01-18T06:15:56.954Z,4.13
2023-01-18T06:18:27.953Z,4.13
2023-01-18T06:20:58.136Z,3.50
2023-01-18T06:23:27.052Z,4.40
2023-01-18T06:25:54.233Z,3.87
2023-01-18T06:28:22.552Z,4.40
2023-01-18T06:30:52.719Z,3.50
2023-01-18T06:33:20.074Z,3.40
2023-01-18T06:35:47.251Z,3.77
2023-01-18T06:38:14.600Z,3.53
2023-01-18T06:40:41.710Z,3.83
2023-01-18T06:43:10.202Z,4.80
2023-01-18T06:45:37.463Z,3.77
2023-01-18T06:48:05.432Z,3.63
2023-01-18T06:50:32.573Z,3.93
2023-01-18T06:53:01.174Z,3.47
2023-01-18T06:55:28.476Z,3.77
2023-01-18T06:57:56.986Z,4.10
2023-01-18T07:00:24.782Z,3.77
2023-01-18T07:02:52.973Z,3.97
2023-01-18T07:05:21.499Z,4.07
2023-01-18T07:07:48.684Z,3.30
2023-01-18T07:10:16.744Z,3.93
2023-01-18T07:12:48.406Z,3.47
2023-01-18T07:15:22.965Z,3.50
2023-01-18T07:17:50.818Z,3.53
2023-01-18T07:20:19.711Z,3.50
2023-01-18T07:22:50.624Z,3.70
2023-01-18T07:25:18.698Z,4.20
2023-01-18T07:27:46.159Z,3.60
2023-01-18T07:30:13.451Z,4.07
2023-01-18T07:32:40.827Z,4.27
2023-01-18T07:35:08.310Z,4.93
2023-01-18T07:37:36.484Z,3.67
2023-01-18T07:40:03.876Z,4.40
2023-01-18T07:42:31.072Z,3.73
2023-01-18T07:44:59.377Z,3.87
2023-01-18T07:47:26.551Z,3.93
2023-01-18T07:49:53.698Z,3.77
2023-01-18T07:52:20.852Z,3.43
2023-01-18T07:54:47.977Z,4.07
2023-01-18T07:57:15.092Z,4.07
2023-01-18T07:59:42.241Z,4.93
2023-01-18T08:02:12.625Z,4.90
2023-01-18T08:04:40.425Z,3.80
2023-01-18T08:07:08.188Z,4.13
2023-01-18T08:09:35.386Z,4.50
2023-01-18T08:12:02.628Z,4.00
2023-01-18T08:14:30.166Z,4.17
2023-01-18T08:16:57.352Z,4.10
2023-01-18T08:19:25.030Z,4.77
2023-01-18T08:21:52.194Z,4.20
2023-01-18T08:24:20.457Z,4.77
2023-01-18T08:26:47.996Z,4.47
2023-01-18T08:29:15.166Z,5.00
2023-01-18T08:31:44.977Z,5.03
2023-01-18T08:34:15.770Z,5.13
2023-01-18T08:36:43.019Z,4.40
2023-01-18T08:39:10.179Z,5.37
2023-01-18T08:41:41.854Z,4.33
2023-01-18T08:44:09.026Z,4.90
2023-01-18T08:46:56.907Z,5.43
2023-01-18T08:49:25.291Z,6.77
2023-01-18T08:51:52.417Z,4.90
2023-01-18T08:54:21.143Z,5.93
2023-01-18T08:56:48.283Z,4.90
2023-01-18T08:59:15.507Z,4.57
2023-01-18T09:01:56.587Z,4.23
2023-01-18T09:04:25.138Z,4.70
2023-01-18T09:06:52.349Z,5.40
2023-01-18T09:09:25.809Z,6.73
2023-01-18T09:11:53.103Z,4.73
2023-01-18T09:14:23.117Z,4.93
2023-01-18T09:16:56.548Z,6.17
2023-01-18T09:19:29.731Z,5.53
2023-01-18T09:22:20.248Z,5.60
2023-01-18T09:24:47.446Z,5.97
2023-01-18T09:27:21.106Z,5.77
2023-01-18T09:29:52.064Z,4.67
2023-01-18T09:32:19.959Z,6.27
2023-01-18T09:34:50.755Z,5.87
2023-01-18T09:37:19.053Z,5.87
2023-01-18T09:39:52.275Z,5.33
2023-01-18T09:42:21.825Z,5.30
2023-01-18T09:44:52.164Z,5.97
2023-01-18T09:47:22.050Z,5.53
2023-01-18T09:49:56.673Z,6.03
2023-01-18T09:52:24.422Z,5.83
2023-01-18T09:55:07.586Z,7.00
2023-01-18T09:57:40.985Z,6.37
2023-01-18T10:00:22.467Z,6.23
2023-01-18T10:02:53.053Z,6.10
2023-01-18T10:05:25.682Z,6.13
2023-01-18T10:08:04.714Z,6.13
2023-01-18T10:10:34.986Z,5.40
2023-01-18T10:13:21.019Z,5.50
2023-01-18T10:15:48.752Z,6.40
2023-01-18T10:18:18.008Z,5.63
2023-01-18T10:20:51.428Z,4.87
2023-01-18T10:23:51.089Z,5.20
2023-01-18T10:26:23.379Z,5.03
2023-01-18T10:28:58.970Z,4.90
2023-01-18T10:31:44.727Z,5.00
2023-01-18T10:34:17.942Z,4.43
2023-01-18T10:36:48.649Z,4.43
2023-01-18T10:39:34.989Z,4.23
2023-01-18T10:42:17.516Z,3.80
2023-01-18T10:44:45.191Z,6.73
2023-01-18T10:47:12.885Z,5.70
2023-01-18T10:49:41.809Z,5.10
2023-01-18T10:52:28.746Z,4.13
2023-01-18T10:55:01.661Z,4.00
2023-01-18T10:57:34.926Z,4.00
2023-01-18T11:00:05.817Z,3.73
2023-01-18T11:02:37.770Z,4.53
2023-01-18T11:05:23.971Z,4.00
2023-01-18T11:08:10.219Z,3.83
2023-01-18T11:10:43.966Z,3.60
2023-01-18T11:13:29.670Z,4.50
2023-01-18T11:16:09.855Z,3.57
2023-01-18T11:18:37.797Z,4.87
2023-01-18T11:21:09.715Z,4.00
2023-01-18T11:23:37.135Z,3.93
2023-01-18T11:26:13.593Z,4.37
2023-01-18T11:28:40.760Z,3.90
2023-01-18T11:31:13.621Z,3.23
2023-01-18T11:33:48.934Z,4.23
2023-01-18T11:36:16.684Z,3.67
2023-01-18T11:38:45.079Z,4.00
2023-01-18T11:41:17.175Z,4.20
2023-01-18T11:43:50.157Z,3.30
2023-01-18T11:46:50.693Z,4.23
2023-01-18T11:49:21.601Z,3.03
2023-01-18T11:52:03.127Z,3.83
2023-01-18T11:54:37.604Z,4.37
2023-01-18T11:57:04.944Z,3.33
2023-01-18T11:59:34.387Z,4.20
2023-01-18T12:02:12.413Z,4.33
2023-01-18T12:04:39.855Z,4.27
2023-01-18T12:07:15.376Z,4.47
2023-01-18T12:09:47.487Z,5.10
2023-01-18T12:12:21.541Z,4.00
2023-01-18T12:14:51.769Z,4.70
2023-01-18T12:17:38.067Z,3.90
2023-01-18T12:20:19.310Z,4.80
2023-01-18T12:22:54.226Z,4.47
2023-01-18T12:25:47.862Z,4.67
2023-01-18T12:28:19.881Z,4.43
2023-01-18T12:30:50.044Z,4.50
2023-01-18T12:33:22.642Z,4.27
2023-01-18T12:36:07.292Z,3.90
2023-01-18T12:38:36.080Z,4.50
2023-01-18T12:41:23.308Z,5.40
2023-01-18T12:44:09.935Z,4.43
2023-01-18T12:46:47.784Z,3.90
2023-01-18T12:49:18.959Z,4.77
2023-01-18T12:51:47.370Z,4.20
2023-01-18T12:54:21.177Z,4.33
2023-01-18T12:56:51.572Z,5.20
2023-01-18T12:59:20.683Z,4.67
2023-01-18T13:02:00.348Z,5.33
2023-01-18T13:04:33.345Z,5.03
2023-01-18T13:07:06.973Z,5.67
2023-01-18T13:09:36.641Z,4.97
2023-01-18T13:12:05.692Z,5.40
2023-01-18T13:14:49.939Z,5.30
2023-01-18T13:17:27.256Z,5.43
2023-01-18T13:19:59.995Z,5.60
2023-01-18T13:22:32.809Z,5.50
2023-01-18T13:25:12.515Z,5.43
2023-01-18T13:27:39.680Z,5.40
2023-01-18T13:30:09.207Z,5.97
2023-01-18T13:32:37.469Z,5.70
2023-01-18T13:35:20.705Z,5.33
2023-01-18T13:37:56.693Z,5.93
2023-01-18T13:40:35.762Z,6.07
2023-01-18T13:43:05.532Z,5.73
2023-01-18T13:45:32.878Z,5.87
2023-01-18T13:48:00.508Z,6.30
2023-01-18T13:50:31.267Z,7.10
2023-01-18T13:53:15.959Z,6.27
2023-01-18T13:55:55.307Z,5.37
2023-01-18T13:58:26.716Z,5.57
2023-01-18T14:00:58.225Z,5.37
2023-01-18T14:03:26.665Z,5.93
2023-01-18T14:05:55.039Z,5.93
2023-01-18T14:08:28.957Z,6.23
2023-01-18T14:11:00.044Z,6.40
2023-01-18T14:13:50.209Z,6.67
2023-01-18T14:16:23.463Z,6.17
2023-01-18T14:18:59.117Z,5.60
2023-01-18T14:21:43.560Z,6.47
2023-01-18T14:24:20.796Z,5.67
2023-01-18T14:26:52.164Z,6.43
2023-01-18T14:29:40.610Z,5.73
2023-01-18T14:32:08.840Z,6.40
2023-01-18T14:34:38.432Z,5.20
2023-01-18T14:37:23.262Z,6.07
2023-01-18T14:40:02.770Z,5.43
2023-01-18T14:42:34.662Z,5.40
2023-01-18T14:45:03.101Z,5.73
2023-01-18T14:47:31.987Z,6.07
2023-01-18T14:49:59.607Z,6.23
2023-01-18T14:52:29.575Z,5.33
2023-01-18T14:54:56.868Z,6.20
2023-01-18T14:57:24.527Z,6.70
2023-01-18T14:59:52.602Z,7.00
2023-01-18T15:02:24.737Z,6.17
2023-01-18T15:04:52.410Z,6.67
2023-01-18T15:07:23.530Z,6.77
2023-01-18T15:09:50.984Z,6.83
2023-01-18T15:12:20.306Z,6.23
2023-01-18T15:14:48.747Z,6.43
2023-01-18T15:17:21.384Z,7.83
2023-01-18T15:19:59.582Z,7.10
2023-01-18T15:22:34.182Z,6.50
2023-01-18T15:25:01.798Z,7.07
2023-01-18T15:27:32.160Z,7.13
2023-01-18T15:30:00.310Z,7.13
2023-01-18T15:32:32.194Z,6.90
2023-01-18T15:35:00.522Z,7.83
2023-01-18T15:37:33.005Z,8.27
2023-01-18T15:40:00.209Z,8.50
2023-01-18T15:42:29.699Z,8.13
2023-01-18T15:44:58.492Z,9.00
2023-01-18T15:47:28.191Z,8.80
2023-01-18T15:49:56.686Z,8.77
2023-01-18T15:52:43.998Z,9.43
2023-01-18T15:55:20.684Z,11.00
2023-01-18T15:58:11.061Z,9.13
2023-01-18T16:00:58.715Z,9.60
2023-01-18T16:03:34.963Z,9.30
2023-01-18T16:06:11.032Z,10.73
2023-01-18T16:08:56.644Z,11.53
2023-01-18T16:11:30.250Z,12.43
2023-01-18T16:13:58.749Z,10.77
2023-01-18T16:16:25.989Z,10.30
2023-01-18T16:19:01.325Z,10.47
2023-01-18T16:21:33.894Z,10.50
2023-01-18T16:24:01.094Z,11.33
2023-01-18T16:26:30.426Z,10.10
2023-01-18T16:29:05.420Z,10.63
2023-01-18T16:31:33.247Z,9.87
2023-01-18T16:34:00.393Z,11.73
2023-01-18T16:36:32.133Z,11.40
2023-01-18T16:39:04.797Z,11.33
2023-01-18T16:41:32.665Z,11.50
2023-01-18T16:44:03.926Z,12.80
2023-01-18T16:46:32.982Z,13.57
2023-01-18T16:49:00.111Z,11.67
2023-01-18T16:51:28.612Z,11.10
2023-01-18T16:53:56.066Z,10.70
2023-01-18T16:56:23.600Z,10.07
2023-01-18T16:58:51.304Z,11.20
2023-01-18T17:01:18.511Z,8.90
2023-01-18T17:03:49.575Z,9.43
2023-01-18T17:06:19.477Z,10.63
2023-01-18T17:08:47.517Z,11.50
2023-01-18T17:11:15.017Z,10.43
2023-01-18T17:13:42.603Z,11.07
2023-01-18T17:16:17.403Z,10.73
2023-01-18T17:18:44.902Z,10.00
2023-01-18T17:21:12.798Z,10.43
2023-01-18T17:23:40.717Z,13.27
2023-01-18T17:26:08.000Z,11.27
2023-01-18T17:28:35.463Z,12.77
2023-01-18T17:31:02.914Z,11.20
2023-01-18T17:33:30.501Z,11.87
2023-01-18T17:35:57.909Z,11.03
2023-01-18T17:38:28.781Z,10.50
2023-01-18T17:40:58.266Z,10.80
2023-01-18T17:43:34.032Z,13.20
2023-01-18T17:46:05.437Z,12.93
2023-01-18T17:48:32.646Z,12.03
2023-01-18T17:51:00.044Z,12.50
2023-01-18T17:53:27.630Z,10.83
2023-01-18T17:55:55.053Z,11.47
2023-01-18T17:58:22.401Z,11.00
2023-01-18T18:00:49.955Z,10.70
2023-01-18T18:03:17.569Z,11.13
2023-01-18T18:05:45.171Z,10.10
2023-01-18T18:08:12.583Z,9.53
2023-01-18T18:10:42.440Z,10.87
2023-01-18T18:13:09.809Z,10.20
2023-01-18T18:15:37.227Z,9.70
2023-01-18T18:18:07.443Z,10.30
2023-01-18T18:20:38.652Z,11.80
2023-01-18T18:23:05.749Z,11.40
2023-01-18T18:25:33.589Z,11.17
2023-01-18T18:28:00.675Z,10.97
2023-01-18T18:30:28.171Z,10.23
2023-01-18T18:32:55.269Z,11.50
2023-01-18T18:35:25.773Z,10.33
2023-01-18T18:37:54.081Z,9.90
2023-01-18T18:40:22.171Z,9.70
2023-01-18T18:43:01.326Z,11.73
2023-01-18T18:45:30.227Z,14.07
2023-01-18T18:47:57.350Z,11.43
2023-01-18T18:50:24.544Z,10.57
2023-01-18T18:52:51.640Z,9.83
2023-01-18T18:55:19.057Z,12.13
2023-01-18T18:57:46.219Z,11.87
2023-01-18T19:00:14.071Z,13.63
2023-01-18T19:02:41.341Z,13.47
2023-01-18T19:05:10.607Z,11.47
2023-01-18T19:07:38.534Z,9.47
2023-01-18T19:10:06.548Z,9.50
2023-01-18T19:12:33.971Z,10.20
2023-01-18T19:15:01.593Z,10.97
2023-01-18T19:17:31.732Z,10.10
2023-01-18T19:19:59.517Z,9.30
2023-01-18T19:22:26.655Z,9.57
2023-01-18T19:24:53.750Z,9.40
2023-01-18T19:27:21.721Z,9.00
2023-01-18T19:29:48.812Z,9.60
2023-01-18T19:32:16.125Z,9.97
2023-01-18T19:34:43.245Z,10.57
2023-01-18T19:37:10.355Z,9.80
2023-01-18T19:39:38.046Z,9.63
2023-01-18T19:42:06.714Z,10.83
2023-01-18T19:44:34.143Z,10.67
2023-01-18T19:47:01.685Z,10.23
2023-01-18T19:49:30.790Z,10.97
2023-01-18T19:51:57.925Z,10.70
2023-01-18T19:54:25.172Z,10.07
2023-01-18T19:56:52.767Z,10.47
2023-01-18T19:59:19.874Z,11.13
2023-01-18T20:01:47.365Z,10.70
2023-01-18T20:04:15.149Z,11.03
2023-01-18T20:06:47.171Z,10.90
2023-01-18T20:09:20.315Z,10.70
2023-01-18T20:11:48.501Z,11.87
2023-01-18T20:14:15.670Z,10.97
2023-01-18T20:16:45.876Z,10.30
2023-01-18T20:19:13.909Z,11.37
2023-01-18T20:21:41.410Z,10.97
2023-01-18T20:24:09.125Z,11.77
2023-01-18T20:26:41.693Z,11.30
2023-01-18T20:29:09.788Z,10.20
2023-01-18T20:31:37.492Z,11.73
2023-01-18T20:34:05.496Z,11.17
2023-01-18T20:36:34.799Z,10.63
2023-01-18T20:39:02.594Z,11.40
2023-01-18T20:41:29.741Z,10.60
2023-01-18T20:43:57.162Z,11.47
2023-01-18T20:46:24.559Z,12.93
2023-01-18T20:48:51.669Z,10.53
2023-01-18T20:51:18.905Z,11.27
2023-01-18T20:53:46.377Z,11.47
2023-01-18T20:56:28.374Z,11.90
2023-01-18T20:58:56.342Z,10.57
2023-01-18T21:01:23.824Z,11.97
2023-01-18T21:03:54.955Z,11.83
2023-01-18T21:06:22.544Z,12.33
2023-01-18T21:08:52.341Z,11.63
2023-01-18T21:11:25.345Z,12.70
2023-01-18T21:13:53.241Z,12.73
2023-01-18T21:16:21.817Z,12.00
2023-01-18T21:18:52.473Z,11.63
2023-01-18T21:21:20.415Z,11.87
2023-01-18T21:23:47.811Z,11.40
2023-01-18T21:26:15.203Z,14.00
2023-01-18T21:28:42.707Z,12.40
2023-01-18T21:31:09.953Z,12.63
2023-01-18T21:33:38.935Z,12.47
2023-01-18T21:36:12.322Z,11.93
2023-01-18T21:38:39.531Z,12.47
2023-01-18T21:41:25.467Z,13.40
2023-01-18T21:44:12.536Z,12.60
2023-01-18T21:46:44.494Z,12.90
2023-01-18T21:52:37.715Z,11.30
2023-01-18T21:55:05.204Z,12.00
2023-01-18T21:57:32.355Z,10.80
2023-01-18T21:59:59.609Z,12.03
2023-01-18T22:02:26.919Z,12.70
2023-01-18T22:05:00.175Z,13.37
2023-01-18T22:07:28.179Z,13.97
2023-01-18T22:10:04.704Z,12.47
2023-01-18T22:12:34.716Z,12.53
2023-01-18T22:15:02.770Z,11.10
2023-01-18T22:17:29.966Z,12.53
2023-01-18T22:19:57.419Z,12.80
2023-01-18T22:22:24.622Z,12.43
2023-01-18T22:24:52.124Z,13.30
2023-01-18T22:27:19.234Z,13.20
2023-01-18T22:29:46.423Z,10.50
2023-01-18T22:32:13.527Z,12.00
2023-01-18T22:34:40.635Z,12.60
2023-01-18T22:37:07.775Z,11.97
2023-01-18T22:39:34.911Z,11.87
2023-01-18T22:42:02.049Z,12.43
2023-01-18T22:44:29.139Z,12.00
2023-01-18T22:46:56.238Z,13.87
2023-01-18T22:49:23.362Z,11.70
2023-01-18T22:51:50.482Z,13.20
2023-01-18T22:54:22.339Z,13.07
2023-01-18T22:56:49.449Z,12.20
2023-01-18T22:59:16.657Z,11.47
2023-01-18T23:01:43.790Z,13.70
2023-01-18T23:04:11.374Z,12.87
2023-01-18T23:06:50.537Z,12.63
2023-01-18T23:09:18.526Z,12.37
2023-01-18T23:11:47.465Z,13.07
2023-01-18T23:14:33.954Z,12.27
2023-01-18T23:17:20.387Z,11.97
2023-01-18T23:19:48.033Z,11.37
2023-01-18T23:22:15.760Z,13.53
2023-01-18T23:24:43.172Z,12.57
2023-01-18T23:27:11.006Z,11.00
2023-01-18T23:29:39.502Z,11.87
2023-01-18T23:32:07.074Z,11.90
2023-01-18T23:34:34.791Z,12.47
2023-01-18T23:37:02.037Z,11.90
2023-01-18T23:39:48.124Z,11.90
2023-01-18T23:42:34.076Z,12.30
2023-01-18T23:45:20.506Z,15.80
2023-01-18T23:48:06.718Z,13.33
2023-01-18T23:50:52.576Z,12.17
2023-01-18T23:53:38.439Z,11.87
2023-01-18T23:56:06.001Z,12.83
2023-01-18T23:58:33.485Z,11.50
